createdAt,value
2023-04-21T00:00:50.413Z,46.61
2023-04-21T00:01:50.441Z,50.30
2023-04-21T00:02:50.534Z,54.57
2023-04-21T00:03:50.581Z,44.73
2023-04-21T00:04:50.500Z,53.92
2023-04-21T00:05:50.450Z,56.55
2023-04-21T00:06:50.382Z,45.79
2023-04-21T00:07:50.377Z,55.61
2023-04-21T00:08:50.356Z,51.39
2023-04-21T00:09:50.354Z,54.41
2023-04-21T00:10:50.325Z,55.29
2023-04-21T00:11:50.340Z,54.34
2023-04-21T00:12:50.302Z,45.39
2023-04-21T00:13:50.318Z,50.80
2023-04-21T00:14:50.316Z,45.94
2023-04-21T00:15:50.327Z,47.91
2023-04-21T00:16:50.304Z,51.85
2023-04-21T00:17:50.278Z,48.36
2023-04-21T00:18:50.240Z,54.58
2023-04-21T00:19:50.252Z,44.67
2023-04-21T00:20:50.250Z,46.94
2023-04-21T00:21:51.281Z,44.88
2023-04-21T00:22:50.245Z,49.38
2023-04-21T00:23:50.280Z,44.79
2023-04-21T00:24:50.215Z,54.80
2023-04-21T00:25:50.181Z,49.08
2023-04-21T00:26:50.197Z,45.25
2023-04-21T00:27:50.202Z,48.97
2023-04-21T00:28:50.179Z,51.71
2023-04-21T00:29:50.154Z,45.23
2023-04-21T00:30:50.145Z,57.29
2023-04-21T00:31:50.261Z,43.63
2023-04-21T00:32:50.169Z,43.64
2023-04-21T00:33:50.174Z,43.08
2023-04-21T00:34:50.119Z,56.00
2023-04-21T00:35:50.138Z,57.52
2023-04-21T00:36:50.120Z,46.17
2023-04-21T00:37:50.151Z,43.85
2023-04-21T00:38:50.125Z,49.88
2023-04-21T00:39:50.088Z,53.83
2023-04-21T00:40:50.069Z,54.54
2023-04-21T00:41:50.067Z,48.44
2023-04-21T00:42:50.744Z,54.67
2023-04-21T00:43:50.081Z,50.61
2023-04-21T00:44:50.120Z,56.25
2023-04-21T00:45:50.058Z,54.06
2023-04-21T00:46:50.095Z,58.70
2023-04-21T00:47:50.257Z,45.84
2023-04-21T00:48:50.026Z,44.68
2023-04-21T00:49:50.064Z,47.76
2023-04-21T00:50:50.016Z,49.36
2023-04-21T00:51:49.990Z,49.65
2023-04-21T00:52:49.991Z,44.64
2023-04-21T00:53:49.978Z,49.10
2023-04-21T00:54:50.771Z,43.35
2023-04-21T00:55:50.079Z,43.93
2023-04-21T00:56:49.990Z,44.07
2023-04-21T00:57:49.959Z,48.65
2023-04-21T00:58:49.948Z,44.08
2023-04-21T00:59:49.972Z,54.43
2023-04-21T01:00:50.080Z,48.95
2023-04-21T01:01:49.955Z,43.39
2023-04-21T01:02:50.148Z,44.10
2023-04-21T01:03:50.167Z,44.27
2023-04-21T01:04:49.961Z,44.96
2023-04-21T01:05:49.912Z,48.86
2023-04-21T01:06:49.917Z,47.05
2023-04-21T01:07:49.878Z,44.19
2023-04-21T01:08:49.911Z,43.88
2023-04-21T01:09:49.875Z,43.39
2023-04-21T01:10:50.755Z,42.92
2023-04-21T01:11:49.906Z,43.91
2023-04-21T01:12:49.863Z,49.11
2023-04-21T01:13:49.865Z,47.71
2023-04-21T01:14:49.828Z,45.04
2023-04-21T01:15:49.888Z,49.65
2023-04-21T01:16:49.872Z,49.00
2023-04-21T01:17:50.021Z,50.55
2023-04-21T01:18:49.803Z,45.37
2023-04-21T01:19:49.801Z,50.38
2023-04-21T01:20:49.817Z,44.74
2023-04-21T01:21:49.790Z,52.86
2023-04-21T01:22:49.936Z,57.61
2023-04-21T01:23:50.653Z,45.91
2023-04-21T01:24:50.652Z,50.60
2023-04-21T01:25:49.765Z,45.97
2023-04-21T01:26:49.755Z,47.33
2023-04-21T01:27:49.752Z,45.95
2023-04-21T01:28:49.736Z,43.86
2023-04-21T01:29:49.803Z,53.26
2023-04-21T01:30:49.716Z,45.35
2023-04-21T01:31:49.808Z,57.89
2023-04-21T01:32:49.737Z,45.86
2023-04-21T01:33:50.715Z,44.78
2023-04-21T01:34:49.694Z,44.17
2023-04-21T01:35:49.722Z,44.64
2023-04-21T01:36:50.262Z,50.70
2023-04-21T01:37:49.690Z,51.25
2023-04-21T01:38:49.664Z,50.40
2023-04-21T01:39:49.642Z,52.33
2023-04-21T01:40:49.650Z,54.19
2023-04-21T01:41:49.624Z,47.27
2023-04-21T01:42:49.672Z,58.38
2023-04-21T01:43:49.637Z,50.47
2023-04-21T01:44:49.679Z,50.47
2023-04-21T01:45:49.681Z,46.98
2023-04-21T01:46:49.645Z,45.32
2023-04-21T01:47:49.624Z,46.77
2023-04-21T01:48:49.623Z,52.42
2023-04-21T01:49:50.617Z,53.30
2023-04-21T01:50:49.578Z,55.72
2023-04-21T01:51:49.567Z,47.01
2023-04-21T01:52:49.561Z,46.83
2023-04-21T01:53:50.153Z,47.02
2023-04-21T01:54:49.576Z,50.36
2023-04-21T01:55:49.580Z,47.45
2023-04-21T01:56:49.575Z,47.20
2023-04-21T01:57:50.163Z,45.67
2023-04-21T01:58:49.524Z,51.62
2023-04-21T01:59:49.557Z,52.20
2023-04-21T02:00:49.508Z,45.77
2023-04-21T02:01:49.646Z,45.20
2023-04-21T02:02:49.572Z,50.49
2023-04-21T02:03:49.739Z,46.17
2023-04-21T02:04:49.491Z,49.14
2023-04-21T02:05:49.467Z,52.53
2023-04-21T02:06:49.447Z,46.88
2023-04-21T02:07:49.450Z,45.63
2023-04-21T02:08:49.441Z,52.15
2023-04-21T02:09:49.452Z,45.14
2023-04-21T02:10:49.445Z,46.13
2023-04-21T02:11:50.291Z,52.69
2023-04-21T02:12:49.464Z,45.93
2023-04-21T02:13:50.306Z,50.81
2023-04-21T02:14:49.401Z,53.96
2023-04-21T02:15:50.420Z,51.48
2023-04-21T02:16:49.459Z,53.13
2023-04-21T02:17:49.454Z,46.46
2023-04-21T02:18:49.354Z,44.82
2023-04-21T02:19:50.152Z,44.98
2023-04-21T02:20:49.352Z,45.66
2023-04-21T02:21:49.325Z,45.95
2023-04-21T02:22:49.356Z,46.49
2023-04-21T02:23:49.336Z,53.87
2023-04-21T02:24:49.297Z,46.43
2023-04-21T02:25:49.304Z,50.91
2023-04-21T02:26:49.333Z,55.96
2023-04-21T02:27:49.305Z,50.93
2023-04-21T02:28:49.280Z,46.36
2023-04-21T02:29:49.288Z,59.32
2023-04-21T02:30:49.395Z,51.78
2023-04-21T02:32:00.829Z,46.63
2023-04-21T02:32:51.345Z,51.45
2023-04-21T02:33:49.252Z,55.35
2023-04-21T02:34:50.158Z,50.08
2023-04-21T02:35:49.240Z,54.35
2023-04-21T02:36:49.225Z,59.06
2023-04-21T02:37:49.239Z,47.83
2023-04-21T02:38:49.202Z,57.93
2023-04-21T02:39:49.203Z,52.68
2023-04-21T02:40:49.207Z,46.26
2023-04-21T02:41:49.175Z,52.96
2023-04-21T02:42:49.189Z,55.91
2023-04-21T02:43:50.166Z,59.82
2023-04-21T02:44:49.165Z,49.38
2023-04-21T02:45:49.146Z,52.43
2023-04-21T02:46:49.213Z,55.20
2023-04-21T02:47:49.182Z,53.82
2023-04-21T02:48:49.141Z,55.03
2023-04-21T02:49:49.137Z,50.87
2023-04-21T02:50:49.805Z,47.55
2023-04-21T02:51:49.116Z,53.97
2023-04-21T02:52:49.155Z,57.04
2023-04-21T02:53:49.074Z,56.19
2023-04-21T02:54:49.094Z,54.53
2023-04-21T02:55:49.073Z,53.17
2023-04-21T02:56:49.075Z,55.44
2023-04-21T02:57:49.099Z,59.55
2023-04-21T02:58:49.053Z,49.94
2023-04-21T02:59:49.046Z,50.31
2023-04-21T03:00:49.082Z,48.47
2023-04-21T03:01:49.046Z,52.24
2023-04-21T03:02:49.194Z,57.49
2023-04-21T03:03:49.073Z,63.16
2023-04-21T03:04:49.051Z,53.17
2023-04-21T03:05:49.024Z,49.04
2023-04-21T03:06:48.980Z,59.12
2023-04-21T03:07:48.995Z,56.76
2023-04-21T03:08:48.957Z,62.26
2023-04-21T03:09:48.962Z,56.52
2023-04-21T03:10:48.984Z,51.87
2023-04-21T03:11:48.999Z,58.38
2023-04-21T03:12:48.941Z,61.41
2023-04-21T03:13:48.992Z,58.40
2023-04-21T03:14:48.939Z,58.88
2023-04-21T03:15:48.950Z,59.52
2023-04-21T03:17:21.682Z,57.76
2023-04-21T03:17:48.950Z,56.93
2023-04-21T03:18:48.898Z,53.73
2023-04-21T03:19:48.893Z,62.10
2023-04-21T03:20:48.906Z,57.86
2023-04-21T03:21:48.922Z,64.63
2023-04-21T03:22:48.894Z,55.29
2023-04-21T03:23:49.795Z,62.39
2023-04-21T03:24:48.850Z,59.87
2023-04-21T03:25:48.865Z,63.09
2023-04-21T03:26:48.866Z,56.40
2023-04-21T03:27:48.867Z,60.03
2023-04-21T03:28:49.841Z,64.08
2023-04-21T03:29:48.849Z,63.34
2023-04-21T03:30:48.897Z,61.63
2023-04-21T03:31:48.864Z,64.67
2023-04-21T03:32:48.845Z,57.19
2023-04-21T03:33:49.689Z,59.99
2023-04-21T03:34:49.779Z,58.58
2023-04-21T03:35:48.835Z,64.28
2023-04-21T03:36:48.801Z,61.54
2023-04-21T03:37:48.802Z,65.77
2023-04-21T03:38:48.788Z,65.04
2023-04-21T03:39:48.789Z,64.66
2023-04-21T03:40:48.801Z,61.82
2023-04-21T03:41:48.735Z,66.08
2023-04-21T03:42:48.723Z,61.94
2023-04-21T03:43:48.711Z,59.07
2023-04-21T03:44:48.743Z,64.38
2023-04-21T03:45:48.794Z,59.89
2023-04-21T03:46:48.696Z,66.93
2023-04-21T04:03:51.716Z,65.34
2023-04-21T04:04:51.718Z,60.04
2023-04-21T04:05:52.761Z,63.90
2023-04-21T04:06:52.731Z,58.03
2023-04-21T04:07:52.741Z,67.44
2023-04-21T04:08:52.715Z,62.02
2023-04-21T04:09:52.721Z,62.83
2023-04-21T04:10:52.703Z,66.26
2023-04-21T04:11:52.690Z,61.43
2023-04-21T04:12:52.696Z,61.09
2023-04-21T04:13:52.679Z,63.31
2023-04-21T04:14:52.664Z,58.72
2023-04-21T04:15:52.715Z,63.37
2023-04-21T04:16:52.662Z,62.56
2023-04-21T04:17:52.731Z,62.86
2023-04-21T04:18:52.654Z,64.38
2023-04-21T04:19:52.657Z,65.80
2023-04-21T04:20:52.638Z,69.45
2023-04-21T04:21:52.624Z,64.38
2023-04-21T04:22:52.629Z,64.83
2023-04-21T04:23:52.596Z,61.39
2023-04-21T04:24:52.628Z,64.61
2023-04-21T04:25:52.566Z,61.01
2023-04-21T04:26:52.580Z,66.13
2023-04-21T04:27:52.582Z,64.07
2023-04-21T04:28:52.563Z,68.46
2023-04-21T04:29:52.567Z,65.38
2023-04-21T04:30:53.371Z,66.35
2023-04-21T04:31:53.348Z,68.54
2023-04-21T04:32:52.560Z,70.10
2023-04-21T04:33:54.979Z,62.77
2023-04-21T04:34:53.526Z,66.01
2023-04-21T04:35:52.515Z,69.26
2023-04-21T04:36:52.505Z,65.11
2023-04-21T04:37:52.519Z,65.24
2023-04-21T04:38:52.497Z,64.52
2023-04-21T04:39:52.465Z,72.43
2023-04-21T04:40:52.531Z,68.23
2023-04-21T04:41:52.469Z,69.52
2023-04-21T04:42:52.509Z,69.08
2023-04-21T04:43:52.446Z,69.47
2023-04-21T04:44:52.421Z,63.89
2023-04-21T04:45:52.406Z,67.59
2023-04-21T04:46:53.449Z,65.63
2023-04-21T04:47:52.501Z,69.02
2023-04-21T04:48:52.402Z,68.32
2023-04-21T04:49:52.394Z,66.37
2023-04-21T04:50:52.376Z,64.16
2023-04-21T04:51:52.376Z,67.22
2023-04-21T04:52:52.456Z,63.68
2023-04-21T04:53:52.352Z,60.36
2023-04-21T04:54:52.360Z,68.65
2023-04-21T04:55:52.359Z,69.17
2023-04-21T04:56:52.330Z,65.72
2023-04-21T04:57:52.324Z,63.65
2023-04-21T04:58:52.348Z,64.46
2023-04-21T04:59:52.312Z,60.00
2023-04-21T05:00:52.294Z,68.04
2023-04-21T05:01:52.317Z,66.82
2023-04-21T05:02:52.411Z,70.11
2023-04-21T05:03:52.383Z,67.41
2023-04-21T05:04:52.412Z,69.70
2023-04-21T05:05:52.266Z,69.67
2023-04-21T05:06:52.254Z,66.75
2023-04-21T05:07:52.249Z,65.60
2023-04-21T05:08:52.261Z,69.98
2023-04-21T05:09:52.253Z,66.44
2023-04-21T05:10:52.221Z,65.23
2023-04-21T05:11:52.211Z,65.23
2023-04-21T05:12:52.192Z,68.28
2023-04-21T05:13:52.259Z,68.56
2023-04-21T05:14:52.237Z,69.34
2023-04-21T05:15:52.198Z,71.53
2023-04-21T05:16:52.252Z,69.00
2023-04-21T05:17:52.210Z,65.30
2023-04-21T05:18:52.162Z,68.36
2023-04-21T05:19:52.170Z,67.20
2023-04-21T05:20:52.195Z,67.66
2023-04-21T05:21:52.140Z,65.25
2023-04-21T05:22:52.141Z,61.55
2023-04-21T05:23:52.163Z,67.35
2023-04-21T05:24:52.134Z,67.09
2023-04-21T05:25:52.196Z,65.77
2023-04-21T05:26:52.156Z,69.19
2023-04-21T05:27:52.112Z,65.98
2023-04-21T05:28:52.082Z,67.71
2023-04-21T05:29:52.069Z,66.16
2023-04-21T05:30:52.091Z,70.32
2023-04-21T05:31:52.121Z,64.55
2023-04-21T05:32:52.103Z,68.98
2023-04-21T05:33:52.084Z,70.12
2023-04-21T05:34:52.026Z,70.40
2023-04-21T05:35:52.051Z,70.13
2023-04-21T05:36:52.066Z,72.64
2023-04-21T05:37:52.119Z,68.74
2023-04-21T05:38:52.011Z,69.12
2023-04-21T05:39:52.009Z,70.14
2023-04-21T05:40:51.976Z,67.20
2023-04-21T05:41:51.994Z,69.64
2023-04-21T05:42:51.971Z,64.48
2023-04-21T05:43:52.076Z,68.38
2023-04-21T05:44:51.970Z,71.64
2023-04-21T05:45:51.959Z,67.15
2023-04-21T05:46:51.994Z,67.55
2023-04-21T05:47:52.053Z,66.24
2023-04-21T05:48:51.947Z,65.77
2023-04-21T05:49:51.917Z,57.00
2023-04-21T05:50:51.928Z,69.53
2023-04-21T05:51:51.970Z,67.51
2023-04-21T05:52:51.971Z,70.33
2023-04-21T05:53:51.922Z,66.23
2023-04-21T05:54:51.882Z,67.47
2023-04-21T05:55:51.890Z,66.79
2023-04-21T05:56:51.878Z,69.29
2023-04-21T05:57:51.874Z,68.64
2023-04-21T05:58:51.851Z,63.37
2023-04-21T05:59:51.855Z,65.69
2023-04-21T06:00:51.847Z,64.93
2023-04-21T06:01:51.817Z,62.21
2023-04-21T06:02:52.064Z,63.93
2023-04-21T06:03:51.901Z,69.83
2023-04-21T06:04:51.928Z,67.59
2023-04-21T06:05:51.883Z,64.91
2023-04-21T06:06:51.871Z,63.24
2023-04-21T06:07:51.826Z,70.50
2023-04-21T06:08:51.803Z,64.48
2023-04-21T06:09:51.835Z,69.13
2023-04-21T06:10:51.828Z,68.75
2023-04-21T06:11:51.774Z,69.34
2023-04-21T06:12:52.367Z,62.90
2023-04-21T06:13:51.786Z,70.64
2023-04-21T06:14:51.761Z,61.96
2023-04-21T06:15:51.767Z,69.95
2023-04-21T06:16:51.727Z,65.81
2023-04-21T06:17:51.721Z,69.33
2023-04-21T06:18:51.711Z,66.55
2023-04-21T06:19:51.724Z,69.71
2023-04-21T06:20:51.687Z,62.38
2023-04-21T06:21:51.678Z,67.12
2023-04-21T06:22:51.681Z,66.55
2023-04-21T06:23:51.647Z,67.14
2023-04-21T06:24:51.657Z,67.70
2023-04-21T06:25:51.664Z,62.48
2023-04-21T06:26:51.657Z,64.11
2023-04-21T06:27:51.633Z,67.76
2023-04-21T06:28:51.610Z,66.25
2023-04-21T06:29:51.626Z,63.80
2023-04-21T06:30:51.616Z,61.41
2023-04-21T06:31:51.699Z,68.84
2023-04-21T06:32:51.624Z,68.02
2023-04-21T06:33:51.593Z,62.22
2023-04-21T06:34:51.576Z,65.36
2023-04-21T06:35:51.584Z,67.46
2023-04-21T06:36:51.547Z,64.58
2023-04-21T06:37:51.575Z,61.92
2023-04-21T06:38:51.529Z,65.75
2023-04-21T06:39:51.543Z,65.88
2023-04-21T06:40:51.553Z,66.80
2023-04-21T06:41:51.522Z,66.96
2023-04-21T06:42:51.505Z,71.54
2023-04-21T06:43:51.520Z,67.82
2023-04-21T06:44:51.485Z,63.22
2023-04-21T06:45:51.513Z,65.63
2023-04-21T06:46:51.509Z,68.19
2023-04-21T06:47:51.551Z,68.35
2023-04-21T06:48:51.460Z,60.28
2023-04-21T06:49:51.450Z,61.59
2023-04-21T06:50:51.491Z,67.09
2023-04-21T06:51:51.433Z,70.23
2023-04-21T06:52:51.439Z,67.30
2023-04-21T06:53:51.422Z,61.21
2023-04-21T06:54:51.419Z,65.71
2023-04-21T06:55:51.428Z,65.96
2023-04-21T06:56:51.439Z,63.94
2023-04-21T06:57:51.441Z,66.39
2023-04-21T06:58:51.398Z,68.05
2023-04-21T06:59:51.382Z,65.54
2023-04-21T07:00:51.450Z,68.93
2023-04-21T07:01:51.356Z,64.58
2023-04-21T07:02:51.520Z,70.98
2023-04-21T07:03:51.374Z,65.94
2023-04-21T07:04:51.405Z,63.75
2023-04-21T07:05:51.342Z,68.10
2023-04-21T07:06:51.364Z,64.88
2023-04-21T07:07:51.296Z,71.19
2023-04-21T07:08:51.346Z,64.57
2023-04-21T07:09:51.283Z,60.12
2023-04-21T07:10:51.288Z,68.23
2023-04-21T07:11:51.289Z,64.59
2023-04-21T07:12:51.306Z,66.77
2023-04-21T07:13:51.272Z,65.09
2023-04-21T07:14:51.254Z,67.51
2023-04-21T07:15:51.262Z,65.19
2023-04-21T07:16:51.297Z,60.75
2023-04-21T07:17:51.340Z,66.27
2023-04-21T07:18:51.244Z,65.74
2023-04-21T07:19:51.287Z,65.74
2023-04-21T07:20:51.229Z,67.88
2023-04-21T07:21:51.239Z,67.89
2023-04-21T07:22:51.196Z,67.50
2023-04-21T07:23:51.259Z,67.28
2023-04-21T07:24:51.450Z,67.44
2023-04-21T07:25:51.158Z,66.37
2023-04-21T07:26:51.140Z,64.18
2023-04-21T07:27:51.154Z,68.55
2023-04-21T07:28:51.143Z,69.07
2023-04-21T07:29:51.170Z,66.80
2023-04-21T07:30:51.217Z,65.81
2023-04-21T07:31:51.116Z,68.15
2023-04-21T07:32:51.123Z,67.17
2023-04-21T07:33:51.132Z,64.09
2023-04-21T07:34:51.112Z,67.56
2023-04-21T07:35:51.095Z,63.01
2023-04-21T07:36:51.072Z,63.21
2023-04-21T07:37:51.132Z,64.51
2023-04-21T07:38:51.169Z,67.19
2023-04-21T07:39:51.081Z,66.77
2023-04-21T07:40:51.177Z,66.78
2023-04-21T07:41:51.032Z,63.64
2023-04-21T07:42:51.041Z,65.39
2023-04-21T07:43:53.180Z,62.70
2023-04-21T07:44:52.021Z,62.96
2023-04-21T07:45:51.068Z,68.67
2023-04-21T07:46:51.019Z,65.60
2023-04-21T07:47:51.029Z,67.89
2023-04-21T07:48:50.998Z,68.13
2023-04-21T07:49:50.980Z,66.47
2023-04-21T07:50:50.994Z,68.88
2023-04-21T07:51:51.104Z,60.95
2023-04-21T07:52:50.962Z,66.32
2023-04-21T07:53:51.178Z,63.08
2023-04-21T07:54:50.935Z,66.77
2023-04-21T07:55:50.935Z,62.28
2023-04-21T07:57:22.874Z,68.63
2023-04-21T07:57:50.929Z,63.63
2023-04-21T07:58:50.900Z,63.07
2023-04-21T07:59:50.971Z,63.15
2023-04-21T08:00:51.098Z,66.57
2023-04-21T08:01:50.901Z,62.47
2023-04-21T08:02:51.899Z,66.71
2023-04-21T08:03:50.897Z,62.75
2023-04-21T08:04:50.930Z,66.12
2023-04-21T08:05:51.166Z,66.65
2023-04-21T08:06:50.877Z,62.13
2023-04-21T08:07:50.865Z,68.67
2023-04-21T08:08:50.839Z,69.49
2023-04-21T08:09:50.841Z,63.04
2023-04-21T08:10:50.817Z,63.51
2023-04-21T08:11:50.820Z,66.23
2023-04-21T08:12:50.830Z,69.75
2023-04-21T08:13:50.827Z,62.89
2023-04-21T08:14:50.821Z,63.82
2023-04-21T08:15:50.890Z,64.02
2023-04-21T08:16:50.977Z,67.54
2023-04-21T08:17:50.840Z,64.79
2023-04-21T08:18:50.797Z,62.47
2023-04-21T08:19:50.795Z,63.51
2023-04-21T08:20:50.754Z,64.56
2023-04-21T08:21:50.814Z,64.16
2023-04-21T08:22:50.752Z,62.92
2023-04-21T08:23:50.778Z,65.68
2023-04-21T08:24:50.736Z,68.67
2023-04-21T08:25:50.725Z,62.36
2023-04-21T08:26:50.693Z,66.10
2023-04-21T08:27:50.717Z,60.20
2023-04-21T08:28:50.698Z,62.00
2023-04-21T08:29:50.707Z,70.21
2023-04-21T08:30:50.706Z,64.89
2023-04-21T08:31:50.724Z,68.49
2023-04-21T08:32:50.760Z,61.66
2023-04-21T08:34:01.167Z,66.18
2023-04-21T08:34:52.658Z,62.65
2023-04-21T08:36:02.385Z,59.28
2023-04-21T08:36:52.655Z,67.73
2023-04-21T08:37:51.671Z,64.74
2023-04-21T08:38:51.671Z,66.89
2023-04-21T08:39:50.631Z,65.10
2023-04-21T08:40:50.597Z,58.57
2023-04-21T08:41:50.628Z,65.41
2023-04-21T08:42:50.585Z,67.49
2023-04-21T08:43:50.579Z,64.89
2023-04-21T08:44:50.579Z,66.23
2023-04-21T08:45:50.604Z,60.15
2023-04-21T08:46:50.606Z,63.95
2023-04-21T08:47:50.565Z,66.21
2023-04-21T08:48:51.398Z,64.42
2023-04-21T08:49:50.544Z,64.46
2023-04-21T08:50:50.526Z,64.77
2023-04-21T08:51:50.542Z,63.84
2023-04-21T08:52:50.520Z,64.02
2023-04-21T08:53:50.524Z,65.15
2023-04-21T08:54:50.492Z,64.27
2023-04-21T08:55:59.592Z,64.75
2023-04-21T08:56:58.936Z,67.74
2023-04-21T08:57:51.507Z,59.08
2023-04-21T08:58:50.525Z,68.65
2023-04-21T08:59:50.456Z,61.86
2023-04-21T09:00:50.499Z,63.41
2023-04-21T09:01:50.532Z,63.16
2023-04-21T09:02:59.421Z,64.63
2023-04-21T09:03:52.660Z,62.06
2023-04-21T09:04:50.862Z,67.41
2023-04-21T09:05:50.710Z,67.66
2023-04-21T09:06:50.464Z,65.20
2023-04-21T09:07:50.398Z,62.79
2023-04-21T09:08:50.397Z,66.33
2023-04-21T09:09:50.375Z,66.52
2023-04-21T09:10:51.242Z,58.40
2023-04-21T09:11:50.359Z,68.31
2023-04-21T09:12:50.388Z,66.99
2023-04-21T09:13:50.373Z,68.18
2023-04-21T09:14:50.386Z,64.74
2023-04-21T09:15:50.353Z,66.99
2023-04-21T09:16:50.337Z,67.40
2023-04-21T09:17:50.388Z,66.22
2023-04-21T09:18:50.345Z,67.99
2023-04-21T09:19:50.381Z,59.20
2023-04-21T09:20:50.327Z,63.71
2023-04-21T09:21:50.305Z,67.82
2023-04-21T09:22:50.330Z,64.48
2023-04-21T09:23:50.366Z,65.07
2023-04-21T09:24:50.254Z,65.22
2023-04-21T09:25:50.259Z,64.96
2023-04-21T09:26:50.244Z,68.40
2023-04-21T09:27:50.241Z,61.75
2023-04-21T09:28:50.251Z,66.21
2023-04-21T09:29:50.228Z,65.46
2023-04-21T09:30:50.264Z,65.13
2023-04-21T09:31:50.271Z,65.84
2023-04-21T09:32:50.257Z,67.94
2023-04-21T09:33:57.662Z,67.63
2023-04-21T09:34:52.226Z,64.92
2023-04-21T09:35:50.205Z,59.58
2023-04-21T09:36:50.191Z,65.31
2023-04-21T09:37:50.171Z,64.13
2023-04-21T09:38:50.227Z,67.67
2023-04-21T09:40:03.668Z,62.35
2023-04-21T09:40:52.169Z,69.48
2023-04-21T09:41:50.131Z,68.89
2023-04-21T09:42:50.112Z,65.27
2023-04-21T09:43:50.182Z,66.12
2023-04-21T09:44:55.380Z,61.97
2023-04-21T09:45:52.112Z,65.20
2023-04-21T09:46:50.352Z,63.27
2023-04-21T09:47:50.124Z,67.81
2023-04-21T09:48:50.049Z,68.04
2023-04-21T09:49:50.121Z,62.89
2023-04-21T09:52:16.715Z,67.49
2023-04-21T09:52:52.039Z,66.52
2023-04-21T09:53:50.037Z,65.11
2023-04-21T09:54:50.062Z,65.45
2023-04-21T09:55:50.034Z,65.13
2023-04-21T09:56:50.042Z,67.60
2023-04-21T09:57:50.106Z,67.45
2023-04-21T09:58:50.098Z,64.60
2023-04-21T09:59:49.991Z,66.31
2023-04-21T10:00:50.013Z,69.06
2023-04-21T10:01:50.029Z,66.14
2023-04-21T10:02:50.148Z,62.53
2023-04-21T10:03:50.125Z,65.93
2023-04-21T10:04:50.170Z,60.63
2023-04-21T10:05:50.007Z,68.27
2023-04-21T10:06:49.936Z,64.16
2023-04-21T10:07:49.933Z,67.05
2023-04-21T10:08:49.908Z,66.43
2023-04-21T10:09:49.937Z,69.42
2023-04-21T10:10:49.896Z,66.99
2023-04-21T10:11:49.897Z,63.02
2023-04-21T10:12:49.897Z,68.38
2023-04-21T10:13:49.871Z,64.93
2023-04-21T10:14:49.969Z,67.90
2023-04-21T10:15:49.986Z,67.48
2023-04-21T10:16:49.886Z,65.20
2023-04-21T10:17:49.897Z,62.04
2023-04-21T10:18:49.866Z,69.01
2023-04-21T10:19:49.825Z,65.71
2023-04-21T10:21:21.772Z,67.32
2023-04-21T10:22:22.856Z,65.42
2023-04-21T10:23:21.762Z,64.37
2023-04-21T10:24:22.502Z,65.74
2023-04-21T10:25:22.490Z,66.48
2023-04-21T10:25:49.789Z,68.07
2023-04-21T10:27:21.740Z,64.92
2023-04-21T10:27:49.847Z,68.11
2023-04-21T10:29:22.531Z,69.57
2023-04-21T10:29:56.704Z,65.58
2023-04-21T10:30:51.767Z,61.81
2023-04-21T10:31:49.792Z,68.90
2023-04-21T10:32:49.770Z,64.82
2023-04-21T10:33:49.743Z,65.11
2023-04-21T10:34:49.732Z,66.09
2023-04-21T10:35:49.716Z,62.53
2023-04-21T10:36:49.713Z,69.39
2023-04-21T10:37:49.695Z,64.44
2023-04-21T10:38:49.700Z,66.21
2023-04-21T10:39:49.723Z,69.88
2023-04-21T10:40:49.680Z,66.24
2023-04-21T10:41:49.661Z,66.37
2023-04-21T10:42:49.675Z,68.43
2023-04-21T10:43:50.010Z,66.43
2023-04-21T10:44:50.669Z,58.90
2023-04-21T10:45:49.648Z,66.98
2023-04-21T10:46:49.647Z,72.00
2023-04-21T10:47:49.739Z,67.14
2023-04-21T10:48:49.650Z,64.00
2023-04-21T10:50:21.547Z,66.22
2023-04-21T10:50:49.628Z,63.10
2023-04-21T10:51:49.673Z,66.32
2023-04-21T10:52:49.598Z,69.39
2023-04-21T10:53:49.651Z,60.25
2023-04-21T10:54:49.580Z,63.31
2023-04-21T10:55:49.595Z,66.16
2023-04-21T10:56:49.557Z,70.43
2023-04-21T10:57:49.592Z,69.52
2023-04-21T10:58:49.575Z,66.64
2023-04-21T10:59:49.592Z,65.37
2023-04-21T11:00:49.606Z,68.82
2023-04-21T11:01:49.522Z,65.24
2023-04-21T11:02:49.606Z,66.75
2023-04-21T11:03:49.704Z,64.28
2023-04-21T11:04:49.739Z,67.98
2023-04-21T11:05:49.484Z,65.86
2023-04-21T11:06:49.486Z,70.06
2023-04-21T11:07:49.698Z,65.24
2023-04-21T11:08:49.471Z,68.02
2023-04-21T11:09:49.483Z,68.01
2023-04-21T11:10:49.534Z,65.04
2023-04-21T11:11:50.144Z,67.81
2023-04-21T11:12:50.132Z,63.57
2023-04-21T11:13:49.431Z,66.68
2023-04-21T11:14:50.171Z,68.81
2023-04-21T11:15:49.453Z,67.18
2023-04-21T11:16:49.414Z,64.40
2023-04-21T11:17:49.451Z,67.49
2023-04-21T11:18:49.379Z,69.51
2023-04-21T11:19:50.055Z,66.00
2023-04-21T11:20:49.379Z,70.01
2023-04-21T11:21:49.360Z,69.83
2023-04-21T11:22:50.152Z,60.12
2023-04-21T11:23:49.370Z,64.76
2023-04-21T11:24:49.345Z,65.81
2023-04-21T11:25:50.860Z,64.06
2023-04-21T11:26:50.375Z,67.91
2023-04-21T11:27:49.323Z,63.03
2023-04-21T11:28:49.330Z,66.19
2023-04-21T11:29:49.333Z,69.44
2023-04-21T11:30:50.205Z,63.75
2023-04-21T11:31:49.299Z,66.76
2023-04-21T11:32:49.287Z,67.15
2023-04-21T11:33:49.264Z,66.85
2023-04-21T11:34:49.265Z,68.42
2023-04-21T11:35:49.277Z,63.98
2023-04-21T11:36:49.283Z,64.40
2023-04-21T11:37:49.246Z,66.88
2023-04-21T11:38:49.292Z,67.72
2023-04-21T11:39:49.264Z,65.84
2023-04-21T11:40:49.224Z,67.16
2023-04-21T11:41:49.232Z,65.67
2023-04-21T11:42:49.206Z,65.59
2023-04-21T11:43:49.191Z,67.75
2023-04-21T11:44:49.187Z,66.14
2023-04-21T11:45:49.248Z,60.74
2023-04-21T11:46:49.486Z,69.26
2023-04-21T11:47:49.238Z,63.54
2023-04-21T11:48:49.203Z,68.58
2023-04-21T11:49:49.187Z,68.07
2023-04-21T11:50:49.197Z,65.14
2023-04-21T11:51:49.161Z,67.76
2023-04-21T11:52:49.140Z,68.24
2023-04-21T11:53:49.137Z,62.94
2023-04-21T11:54:49.135Z,66.57
2023-04-21T11:55:49.114Z,63.51
2023-04-21T11:56:49.112Z,69.20
2023-04-21T11:57:49.135Z,67.50
2023-04-21T11:58:49.079Z,66.24
2023-04-21T11:59:49.090Z,68.86
2023-04-21T12:00:49.094Z,67.17
2023-04-21T12:01:49.055Z,62.86
2023-04-21T12:02:49.150Z,71.62
2023-04-21T12:03:49.225Z,67.74
2023-04-21T12:04:49.188Z,65.18
2023-04-21T12:05:49.085Z,67.37
2023-04-21T12:06:49.046Z,66.45
2023-04-21T12:07:49.020Z,67.79
2023-04-21T12:08:49.042Z,64.44
2023-04-21T12:09:49.031Z,65.87
2023-04-21T12:10:49.008Z,65.12
2023-04-21T12:11:49.735Z,67.82
2023-04-21T12:12:49.968Z,68.51
2023-04-21T12:13:48.974Z,65.24
2023-04-21T12:14:49.020Z,67.42
2023-04-21T12:15:49.085Z,68.79
2023-04-21T12:16:49.071Z,68.16
2023-04-21T12:17:49.045Z,67.49
2023-04-21T12:18:48.996Z,61.66
2023-04-21T12:19:48.939Z,66.00
2023-04-21T12:20:48.898Z,63.74
2023-04-21T12:21:48.929Z,70.13
2023-04-21T12:22:48.903Z,68.82
2023-04-21T12:23:48.928Z,68.01
2023-04-21T12:24:48.898Z,63.32
2023-04-21T12:25:48.870Z,69.71
2023-04-21T12:26:48.884Z,67.44
2023-04-21T12:27:48.873Z,66.63
2023-04-21T12:28:48.874Z,64.51
2023-04-21T12:29:49.043Z,65.99
2023-04-21T12:30:48.857Z,69.63
2023-04-21T12:31:49.006Z,67.25
2023-04-21T12:32:48.970Z,69.63
2023-04-21T12:33:48.841Z,66.74
2023-04-21T12:34:48.817Z,68.91
2023-04-21T12:35:48.805Z,68.66
2023-04-21T12:36:48.815Z,66.66
2023-04-21T12:37:48.838Z,67.16
2023-04-21T12:38:48.801Z,70.24
2023-04-21T12:39:48.802Z,63.23
2023-04-21T12:40:48.825Z,67.20
2023-04-21T12:41:48.841Z,63.80
2023-04-21T12:42:48.825Z,68.61
2023-04-21T12:43:48.747Z,70.37
2023-04-21T12:44:48.753Z,69.19
2023-04-21T12:45:48.790Z,68.86
2023-04-21T12:46:48.805Z,68.23
2023-04-21T12:47:48.761Z,65.12
2023-04-21T12:48:48.732Z,59.66
2023-04-21T12:49:48.714Z,63.59
2023-04-21T12:50:48.766Z,59.96
2023-04-21T12:51:48.750Z,71.81
2023-04-21T12:52:48.693Z,67.53
2023-04-21T12:53:48.671Z,67.89
2023-04-21T12:54:48.690Z,68.53
2023-04-21T12:56:01.001Z,64.98
2023-04-21T12:56:51.679Z,67.23
2023-04-21T12:57:48.670Z,67.03
2023-04-21T12:58:48.634Z,63.98
2023-04-21T12:59:48.694Z,66.05
2023-04-21T13:00:48.703Z,69.24
2023-04-21T13:01:48.762Z,65.95
2023-04-21T13:02:48.783Z,67.61
2023-04-21T13:03:48.819Z,66.78
2023-04-21T13:04:49.509Z,63.67
2023-04-21T13:05:48.602Z,66.09
2023-04-21T13:06:48.682Z,66.15
2023-04-21T13:07:48.602Z,68.46
2023-04-21T13:08:48.589Z,68.80
2023-04-21T13:09:48.648Z,66.41